sensor_id;sensor_type;location;lat;lon;timestamp;temperature;humidity
262;DHT22;114;48.260;10.988;2022-10-16T00:01:11;11.60;99.90
262;DHT22;114;48.260;10.988;2022-10-16T00:03:37;11.60;99.90
262;DHT22;114;48.260;10.988;2022-10-16T00:06:04;11.50;99.90
262;DHT22;114;48.260;10.988;2022-10-16T00:08:30;11.40;99.90
262;DHT22;114;48.260;10.988;2022-10-16T00:11:25;11.40;99.90
262;DHT22;114;48.260;10.988;2022-10-16T00:13:51;11.40;99.90
262;DHT22;114;48.260;10.988;2022-10-16T00:16:20;11.40;99.90
262;DHT22;114;48.260;10.988;2022-10-16T00:18:46;11.50;99.90
262;DHT22;114;48.260;10.988;2022-10-16T00:21:19;11.50;99.90
262;DHT22;114;48.260;10.988;2022-10-16T00:23:45;11.50;99.90
262;DHT22;114;48.260;10.988;2022-10-16T00:26:14;11.50;99.90
262;DHT22;114;48.260;10.988;2022-10-16T00:28:40;11.50;99.90
262;DHT22;114;48.260;10.988;2022-10-16T00:31:08;11.60;99.90
262;DHT22;114;48.260;10.988;2022-10-16T00:33:35;11.60;99.90
262;DHT22;114;48.260;10.988;2022-10-16T00:36:03;11.60;99.90
262;DHT22;114;48.260;10.988;2022-10-16T00:38:29;11.60;99.90
262;DHT22;114;48.260;10.988;2022-10-16T00:40:55;11.70;99.90
262;DHT22;114;48.260;10.988;2022-10-16T00:46:15;11.70;99.90
262;DHT22;114;48.260;10.988;2022-10-16T00:48:48;11.60;99.90
262;DHT22;114;48.260;10.988;2022-10-16T00:51:15;11.60;99.90
262;DHT22;114;48.260;10.988;2022-10-16T00:53:42;11.50;99.90
262;DHT22;114;48.260;10.988;2022-10-16T00:56:08;11.50;99.90
262;DHT22;114;48.260;10.988;2022-10-16T00:58:34;11.50;99.90
262;DHT22;114;48.260;10.988;2022-10-16T01:01:00;11.50;99.90
262;DHT22;114;48.260;10.988;2022-10-16T01:03:31;11.40;99.90
262;DHT22;114;48.260;10.988;2022-10-16T01:12:14;11.30;99.90
262;DHT22;114;48.260;10.988;2022-10-16T01:14:29;11.20;99.90
262;DHT22;114;48.260;10.988;2022-10-16T01:17:12;11.10;99.90
262;DHT22;114;48.260;10.988;2022-10-16T01:20:03;11.10;99.90
262;DHT22;114;48.260;10.988;2022-10-16T01:23:05;11.10;99.90
262;DHT22;114;48.260;10.988;2022-10-16T01:28:24;11.20;99.90
262;DHT22;114;48.260;10.988;2022-10-16T01:30:56;11.20;99.90
262;DHT22;114;48.260;10.988;2022-10-16T01:33:30;11.20;99.90
262;DHT22;114;48.260;10.988;2022-10-16T01:36:05;11.20;99.90
262;DHT22;114;48.260;10.988;2022-10-16T01:38:35;11.20;99.90
262;DHT22;114;48.260;10.988;2022-10-16T01:41:15;11.20;99.90
262;DHT22;114;48.260;10.988;2022-10-16T01:43:48;11.20;99.90
262;DHT22;114;48.260;10.988;2022-10-16T01:46:17;11.20;99.90
262;DHT22;114;48.260;10.988;2022-10-16T01:48:43;11.30;99.90
262;DHT22;114;48.260;10.988;2022-10-16T01:51:12;11.40;99.90
262;DHT22;114;48.260;10.988;2022-10-16T01:53:40;11.40;99.90
262;DHT22;114;48.260;10.988;2022-10-16T01:56:11;11.40;99.90
262;DHT22;114;48.260;10.988;2022-10-16T01:58:44;11.30;99.90
262;DHT22;114;48.260;10.988;2022-10-16T02:01:13;11.30;99.90
262;DHT22;114;48.260;10.988;2022-10-16T02:03:42;11.30;99.90
262;DHT22;114;48.260;10.988;2022-10-16T02:06:08;11.40;99.90
262;DHT22;114;48.260;10.988;2022-10-16T02:08:35;11.40;99.90
262;DHT22;114;48.260;10.988;2022-10-16T02:11:01;11.30;99.90
262;DHT22;114;48.260;10.988;2022-10-16T02:15:58;11.20;99.90
262;DHT22;114;48.260;10.988;2022-10-16T02:18:25;11.20;99.90
262;DHT22;114;48.260;10.988;2022-10-16T02:21:00;11.20;99.90
262;DHT22;114;48.260;10.988;2022-10-16T02:23:51;11.20;99.90
262;DHT22;114;48.260;10.988;2022-10-16T02:26:29;11.10;99.90
262;DHT22;114;48.260;10.988;2022-10-16T02:29:00;11.10;99.90
262;DHT22;114;48.260;10.988;2022-10-16T02:31:32;11.00;99.90
262;DHT22;114;48.260;10.988;2022-10-16T02:34:00;10.90;99.90
262;DHT22;114;48.260;10.988;2022-10-16T02:36:28;10.80;99.90
262;DHT22;114;48.260;10.988;2022-10-16T02:38:55;10.80;99.90
262;DHT22;114;48.260;10.988;2022-10-16T02:41:23;10.80;99.90
262;DHT22;114;48.260;10.988;2022-10-16T02:43:49;10.90;99.90
262;DHT22;114;48.260;10.988;2022-10-16T02:46:15;10.90;99.90
262;DHT22;114;48.260;10.988;2022-10-16T02:48:42;11.00;99.90
262;DHT22;114;48.260;10.988;2022-10-16T02:51:08;11.10;99.90
262;DHT22;114;48.260;10.988;2022-10-16T02:53:33;11.10;99.90
262;DHT22;114;48.260;10.988;2022-10-16T02:55:59;11.10;99.90
262;DHT22;114;48.260;10.988;2022-10-16T02:58:25;11.20;99.90
262;DHT22;114;48.260;10.988;2022-10-16T03:00:50;11.30;99.90
262;DHT22;114;48.260;10.988;2022-10-16T03:03:16;11.30;99.90
262;DHT22;114;48.260;10.988;2022-10-16T03:05:43;11.30;99.90
262;DHT22;114;48.260;10.988;2022-10-16T03:08:13;11.30;99.90
262;DHT22;114;48.260;10.988;2022-10-16T03:10:40;11.40;99.90
262;DHT22;114;48.260;10.988;2022-10-16T03:13:05;11.40;99.90
262;DHT22;114;48.260;10.988;2022-10-16T03:15:31;11.40;99.90
262;DHT22;114;48.260;10.988;2022-10-16T03:18:00;11.50;99.90
262;DHT22;114;48.260;10.988;2022-10-16T03:20:26;11.50;99.90
262;DHT22;114;48.260;10.988;2022-10-16T03:22:52;11.60;99.90
262;DHT22;114;48.260;10.988;2022-10-16T03:25:17;11.50;99.90
262;DHT22;114;48.260;10.988;2022-10-16T03:27:43;11.60;99.90
262;DHT22;114;48.260;10.988;2022-10-16T03:30:09;11.60;99.90
262;DHT22;114;48.260;10.988;2022-10-16T03:32:35;11.60;99.90
262;DHT22;114;48.260;10.988;2022-10-16T03:35:01;11.70;99.90
262;DHT22;114;48.260;10.988;2022-10-16T03:37:26;11.70;99.90
262;DHT22;114;48.260;10.988;2022-10-16T03:39:52;11.60;99.90
262;DHT22;114;48.260;10.988;2022-10-16T03:42:18;11.70;99.90
262;DHT22;114;48.260;10.988;2022-10-16T03:44:44;11.70;99.90
262;DHT22;114;48.260;10.988;2022-10-16T03:47:09;11.70;99.90
262;DHT22;114;48.260;10.988;2022-10-16T03:49:36;11.70;99.90
262;DHT22;114;48.260;10.988;2022-10-16T03:52:02;11.70;99.90
262;DHT22;114;48.260;10.988;2022-10-16T03:54:27;11.70;99.90
262;DHT22;114;48.260;10.988;2022-10-16T03:56:53;11.80;99.90
262;DHT22;114;48.260;10.988;2022-10-16T03:59:19;11.80;99.90
262;DHT22;114;48.260;10.988;2022-10-16T04:01:45;11.70;99.90
262;DHT22;114;48.260;10.988;2022-10-16T04:04:10;11.80;99.90
262;DHT22;114;48.260;10.988;2022-10-16T04:06:36;11.80;99.90
262;DHT22;114;48.260;10.988;2022-10-16T04:09:02;11.80;99.90
262;DHT22;114;48.260;10.988;2022-10-16T04:11:28;11.80;99.90
262;DHT22;114;48.260;10.988;2022-10-16T04:13:54;11.90;99.90
262;DHT22;114;48.260;10.988;2022-10-16T04:16:20;11.90;99.90
262;DHT22;114;48.260;10.988;2022-10-16T04:18:45;11.90;99.90
262;DHT22;114;48.260;10.988;2022-10-16T04:21:11;11.90;99.90
262;DHT22;114;48.260;10.988;2022-10-16T04:23:37;11.90;99.90
262;DHT22;114;48.260;10.988;2022-10-16T04:26:03;11.90;99.90
262;DHT22;114;48.260;10.988;2022-10-16T04:28:28;11.80;99.90
262;DHT22;114;48.260;10.988;2022-10-16T04:30:54;11.90;99.90
262;DHT22;114;48.260;10.988;2022-10-16T04:33:20;11.90;99.90
262;DHT22;114;48.260;10.988;2022-10-16T04:35:45;11.90;99.90
262;DHT22;114;48.260;10.988;2022-10-16T04:38:11;11.90;99.90
262;DHT22;114;48.260;10.988;2022-10-16T04:40:37;11.80;99.90
262;DHT22;114;48.260;10.988;2022-10-16T04:43:03;11.80;99.90
262;DHT22;114;48.260;10.988;2022-10-16T04:45:29;11.80;99.90
262;DHT22;114;48.260;10.988;2022-10-16T04:47:59;11.70;99.90
262;DHT22;114;48.260;10.988;2022-10-16T04:50:26;11.70;99.90
262;DHT22;114;48.260;10.988;2022-10-16T04:52:51;11.60;99.90
262;DHT22;114;48.260;10.988;2022-10-16T04:55:17;11.60;99.90
262;DHT22;114;48.260;10.988;2022-10-16T04:57:43;11.60;99.90
262;DHT22;114;48.260;10.988;2022-10-16T05:00:09;11.50;99.90
262;DHT22;114;48.260;10.988;2022-10-16T05:02:35;11.50;99.90
262;DHT22;114;48.260;10.988;2022-10-16T05:05:00;11.50;99.90
262;DHT22;114;48.260;10.988;2022-10-16T05:07:26;11.40;99.90
262;DHT22;114;48.260;10.988;2022-10-16T05:09:52;11.30;99.90
262;DHT22;114;48.260;10.988;2022-10-16T05:12:18;11.20;99.90
262;DHT22;114;48.260;10.988;2022-10-16T05:14:44;11.10;99.90
262;DHT22;114;48.260;10.988;2022-10-16T05:17:09;11.30;99.90
262;DHT22;114;48.260;10.988;2022-10-16T05:19:35;11.40;99.90
262;DHT22;114;48.260;10.988;2022-10-16T05:22:03;11.40;99.90
262;DHT22;114;48.260;10.988;2022-10-16T05:24:29;11.30;99.90
262;DHT22;114;48.260;10.988;2022-10-16T05:26:54;11.40;99.90
262;DHT22;114;48.260;10.988;2022-10-16T05:29:20;11.50;99.90
262;DHT22;114;48.260;10.988;2022-10-16T05:31:46;11.60;99.90
262;DHT22;114;48.260;10.988;2022-10-16T05:34:12;11.60;99.90
262;DHT22;114;48.260;10.988;2022-10-16T05:36:37;11.50;99.90
262;DHT22;114;48.260;10.988;2022-10-16T05:39:03;11.50;99.90
262;DHT22;114;48.260;10.988;2022-10-16T05:41:30;11.40;99.90
262;DHT22;114;48.260;10.988;2022-10-16T05:43:57;11.30;99.90
262;DHT22;114;48.260;10.988;2022-10-16T05:46:23;11.20;99.90
262;DHT22;114;48.260;10.988;2022-10-16T05:48:52;11.20;99.90
262;DHT22;114;48.260;10.988;2022-10-16T05:51:18;11.30;99.90
262;DHT22;114;48.260;10.988;2022-10-16T05:53:44;11.20;99.90
262;DHT22;114;48.260;10.988;2022-10-16T05:56:11;11.10;99.90
262;DHT22;114;48.260;10.988;2022-10-16T05:58:39;10.90;99.90
262;DHT22;114;48.260;10.988;2022-10-16T06:01:10;10.90;99.90
262;DHT22;114;48.260;10.988;2022-10-16T06:03:36;10.80;99.90
262;DHT22;114;48.260;10.988;2022-10-16T06:06:17;10.80;99.90
262;DHT22;114;48.260;10.988;2022-10-16T06:08:44;10.80;99.90
262;DHT22;114;48.260;10.988;2022-10-16T06:11:18;10.70;99.90
262;DHT22;114;48.260;10.988;2022-10-16T06:13:44;10.80;99.90
262;DHT22;114;48.260;10.988;2022-10-16T06:16:12;10.80;99.90
262;DHT22;114;48.260;10.988;2022-10-16T06:18:38;10.80;99.90
262;DHT22;114;48.260;10.988;2022-10-16T06:21:12;10.70;99.90
262;DHT22;114;48.260;10.988;2022-10-16T06:23:38;10.70;99.90
262;DHT22;114;48.260;10.988;2022-10-16T06:26:08;10.70;99.90
262;DHT22;114;48.260;10.988;2022-10-16T06:28:35;10.70;99.90
262;DHT22;114;48.260;10.988;2022-10-16T06:31:01;10.70;99.90
262;DHT22;114;48.260;10.988;2022-10-16T06:33:27;10.70;99.90
262;DHT22;114;48.260;10.988;2022-10-16T06:35:52;10.70;99.90
262;DHT22;114;48.260;10.988;2022-10-16T06:38:18;10.70;99.90
262;DHT22;114;48.260;10.988;2022-10-16T06:40:44;10.80;99.90
262;DHT22;114;48.260;10.988;2022-10-16T06:43:09;10.90;99.90
262;DHT22;114;48.260;10.988;2022-10-16T06:45:35;11.00;99.90
262;DHT22;114;48.260;10.988;2022-10-16T06:48:01;11.10;99.90
262;DHT22;114;48.260;10.988;2022-10-16T06:50:27;11.30;99.90
262;DHT22;114;48.260;10.988;2022-10-16T06:52:53;11.50;99.90
262;DHT22;114;48.260;10.988;2022-10-16T06:55:18;11.60;99.90
262;DHT22;114;48.260;10.988;2022-10-16T06:57:47;11.80;99.90
262;DHT22;114;48.260;10.988;2022-10-16T07:00:13;12.00;99.90
262;DHT22;114;48.260;10.988;2022-10-16T07:02:39;12.20;99.90
262;DHT22;114;48.260;10.988;2022-10-16T07:05:05;12.30;99.90
262;DHT22;114;48.260;10.988;2022-10-16T07:07:31;12.60;99.90
262;DHT22;114;48.260;10.988;2022-10-16T07:09:57;12.70;97.90
262;DHT22;114;48.260;10.988;2022-10-16T07:12:23;13.00;96.60
262;DHT22;114;48.260;10.988;2022-10-16T07:14:49;13.20;93.30
262;DHT22;114;48.260;10.988;2022-10-16T07:17:17;13.20;91.00
262;DHT22;114;48.260;10.988;2022-10-16T07:19:44;13.40;89.60
262;DHT22;114;48.260;10.988;2022-10-16T07:22:10;13.60;86.40
262;DHT22;114;48.260;10.988;2022-10-16T07:24:36;13.90;83.70
262;DHT22;114;48.260;10.988;2022-10-16T07:27:01;14.20;79.10
262;DHT22;114;48.260;10.988;2022-10-16T07:29:27;14.40;75.10
262;DHT22;114;48.260;10.988;2022-10-16T07:31:53;14.60;68.30
262;DHT22;114;48.260;10.988;2022-10-16T07:34:19;14.80;62.70
262;DHT22;114;48.260;10.988;2022-10-16T07:36:50;15.10;55.70
262;DHT22;114;48.260;10.988;2022-10-16T07:39:16;15.30;52.10
262;DHT22;114;48.260;10.988;2022-10-16T07:41:42;15.50;46.50
262;DHT22;114;48.260;10.988;2022-10-16T07:44:08;15.70;41.80
262;DHT22;114;48.260;10.988;2022-10-16T07:46:35;15.80;40.90
262;DHT22;114;48.260;10.988;2022-10-16T07:49:02;15.90;37.20
262;DHT22;114;48.260;10.988;2022-10-16T07:51:28;16.00;37.00
262;DHT22;114;48.260;10.988;2022-10-16T07:53:54;16.10;35.00
262;DHT22;114;48.260;10.988;2022-10-16T07:56:20;16.20;32.20
262;DHT22;114;48.260;10.988;2022-10-16T07:58:46;16.30;30.40
262;DHT22;114;48.260;10.988;2022-10-16T08:01:15;16.40;29.90
262;DHT22;114;48.260;10.988;2022-10-16T08:03:43;16.60;26.60
262;DHT22;114;48.260;10.988;2022-10-16T08:06:09;16.70;25.70
262;DHT22;114;48.260;10.988;2022-10-16T08:08:35;16.80;25.00
262;DHT22;114;48.260;10.988;2022-10-16T08:11:01;16.90;25.30
262;DHT22;114;48.260;10.988;2022-10-16T08:13:29;17.10;24.40
262;DHT22;114;48.260;10.988;2022-10-16T08:15:56;17.30;22.40
262;DHT22;114;48.260;10.988;2022-10-16T08:18:22;17.60;17.60
262;DHT22;114;48.260;10.988;2022-10-16T08:20:58;17.80;17.10
262;DHT22;114;48.260;10.988;2022-10-16T08:23:25;18.10;14.00
262;DHT22;114;48.260;10.988;2022-10-16T08:25:54;18.40;11.10
262;DHT22;114;48.260;10.988;2022-10-16T08:28:21;18.50;9.40
262;DHT22;114;48.260;10.988;2022-10-16T08:30:47;18.60;8.20
262;DHT22;114;48.260;10.988;2022-10-16T08:33:13;18.60;10.20
262;DHT22;114;48.260;10.988;2022-10-16T08:35:38;18.70;9.20
262;DHT22;114;48.260;10.988;2022-10-16T08:38:05;18.70;9.70
262;DHT22;114;48.260;10.988;2022-10-16T08:40:33;18.70;10.10
262;DHT22;114;48.260;10.988;2022-10-16T08:43:21;18.90;11.30
262;DHT22;114;48.260;10.988;2022-10-16T08:46:30;19.20;9.90
262;DHT22;114;48.260;10.988;2022-10-16T08:49:03;19.70;6.60
262;DHT22;114;48.260;10.988;2022-10-16T08:51:35;19.90;2.80
262;DHT22;114;48.260;10.988;2022-10-16T08:54:04;19.80;1.00
262;DHT22;114;48.260;10.988;2022-10-16T08:56:31;19.60;2.30
262;DHT22;114;48.260;10.988;2022-10-16T08:58:58;19.60;4.10
262;DHT22;114;48.260;10.988;2022-10-16T09:01:40;19.80;2.60
262;DHT22;114;48.260;10.988;2022-10-16T09:06:52;19.80;2.20
262;DHT22;114;48.260;10.988;2022-10-16T09:11:51;20.10;1.00
262;DHT22;114;48.260;10.988;2022-10-16T09:20:18;20.40;1.00
262;DHT22;114;48.260;10.988;2022-10-16T09:22:44;20.50;1.00
262;DHT22;114;48.260;10.988;2022-10-16T09:25:13;20.70;1.00
262;DHT22;114;48.260;10.988;2022-10-16T09:27:40;20.90;1.00
262;DHT22;114;48.260;10.988;2022-10-16T09:30:15;20.90;1.00
262;DHT22;114;48.260;10.988;2022-10-16T09:32:43;21.00;1.00
262;DHT22;114;48.260;10.988;2022-10-16T09:38:00;21.20;1.00
262;DHT22;114;48.260;10.988;2022-10-16T09:40:32;21.40;1.00
262;DHT22;114;48.260;10.988;2022-10-16T09:43:21;21.90;1.00
262;DHT22;114;48.260;10.988;2022-10-16T09:46:09;22.50;1.00
262;DHT22;114;48.260;10.988;2022-10-16T09:48:50;22.90;1.00
262;DHT22;114;48.260;10.988;2022-10-16T09:51:23;23.20;1.00
262;DHT22;114;48.260;10.988;2022-10-16T09:53:57;23.20;1.00
262;DHT22;114;48.260;10.988;2022-10-16T09:56:29;23.60;1.00
262;DHT22;114;48.260;10.988;2022-10-16T09:58:59;23.30;1.00
262;DHT22;114;48.260;10.988;2022-10-16T10:04:04;23.60;1.00
262;DHT22;114;48.260;10.988;2022-10-16T10:06:36;23.50;1.00
262;DHT22;114;48.260;10.988;2022-10-16T10:11:56;23.70;1.00
262;DHT22;114;48.260;10.988;2022-10-16T10:16:52;23.60;1.00
262;DHT22;114;48.260;10.988;2022-10-16T10:19:27;23.40;1.00
262;DHT22;114;48.260;10.988;2022-10-16T10:21:53;23.40;1.00
262;DHT22;114;48.260;10.988;2022-10-16T10:24:20;23.20;1.00
262;DHT22;114;48.260;10.988;2022-10-16T10:27:05;23.50;1.00
262;DHT22;114;48.260;10.988;2022-10-16T10:29:40;24.10;1.00
262;DHT22;114;48.260;10.988;2022-10-16T10:32:26;24.30;1.00
262;DHT22;114;48.260;10.988;2022-10-16T10:37:37;24.90;1.00
262;DHT22;114;48.260;10.988;2022-10-16T10:43:29;27.20;1.00
262;DHT22;114;48.260;10.988;2022-10-16T10:46:02;29.20;1.00
262;DHT22;114;48.260;10.988;2022-10-16T11:00:09;30.20;1.00
262;DHT22;114;48.260;10.988;2022-10-16T11:03:27;30.30;1.00
262;DHT22;114;48.260;10.988;2022-10-16T11:05:46;30.70;1.00
262;DHT22;114;48.260;10.988;2022-10-16T11:08:48;30.40;1.00
262;DHT22;114;48.260;10.988;2022-10-16T11:16:23;28.30;1.00
262;DHT22;114;48.260;10.988;2022-10-16T11:19:20;28.70;1.00
262;DHT22;114;48.260;10.988;2022-10-16T11:22:13;29.30;1.00
262;DHT22;114;48.260;10.988;2022-10-16T11:27:41;31.00;1.00
262;DHT22;114;48.260;10.988;2022-10-16T11:30:24;31.50;1.00
262;DHT22;114;48.260;10.988;2022-10-16T11:38:15;32.70;1.00
262;DHT22;114;48.260;10.988;2022-10-16T11:40:43;33.10;1.00
262;DHT22;114;48.260;10.988;2022-10-16T11:43:27;33.60;1.00
262;DHT22;114;48.260;10.988;2022-10-16T11:46:18;33.90;1.00
262;DHT22;114;48.260;10.988;2022-10-16T11:49:06;33.60;1.00
262;DHT22;114;48.260;10.988;2022-10-16T11:51:38;33.20;1.00
262;DHT22;114;48.260;10.988;2022-10-16T11:57:03;32.30;1.00
262;DHT22;114;48.260;10.988;2022-10-16T11:59:49;32.70;1.00
262;DHT22;114;48.260;10.988;2022-10-16T12:06:06;34.60;1.00
262;DHT22;114;48.260;10.988;2022-10-16T12:08:12;34.20;1.00
262;DHT22;114;48.260;10.988;2022-10-16T12:10:42;34.30;1.00
262;DHT22;114;48.260;10.988;2022-10-16T12:18:43;34.20;1.00
262;DHT22;114;48.260;10.988;2022-10-16T12:21:11;34.40;1.00
262;DHT22;114;48.260;10.988;2022-10-16T12:23:56;34.80;1.00
262;DHT22;114;48.260;10.988;2022-10-16T12:26:36;33.20;1.00
262;DHT22;114;48.260;10.988;2022-10-16T12:29:23;32.00;1.00
262;DHT22;114;48.260;10.988;2022-10-16T12:31:53;32.50;1.00
262;DHT22;114;48.260;10.988;2022-10-16T12:37:26;33.40;1.00
262;DHT22;114;48.260;10.988;2022-10-16T12:39:54;33.90;1.00
262;DHT22;114;48.260;10.988;2022-10-16T12:44:52;34.10;1.00
262;DHT22;114;48.260;10.988;2022-10-16T12:47:37;33.80;1.00
262;DHT22;114;48.260;10.988;2022-10-16T12:50:22;34.50;1.00
262;DHT22;114;48.260;10.988;2022-10-16T12:52:48;34.10;1.00
262;DHT22;114;48.260;10.988;2022-10-16T12:55:19;35.00;1.00
262;DHT22;114;48.260;10.988;2022-10-16T13:08:47;34.60;1.00
262;DHT22;114;48.260;10.988;2022-10-16T13:11:23;33.00;1.00
262;DHT22;114;48.260;10.988;2022-10-16T13:14:57;33.00;1.00
262;DHT22;114;48.260;10.988;2022-10-16T13:22:34;34.20;1.00
262;DHT22;114;48.260;10.988;2022-10-16T13:28:00;33.40;1.00
262;DHT22;114;48.260;10.988;2022-10-16T13:30:42;34.20;1.00
262;DHT22;114;48.260;10.988;2022-10-16T13:33:25;34.40;1.00
262;DHT22;114;48.260;10.988;2022-10-16T13:35:57;31.90;1.00
262;DHT22;114;48.260;10.988;2022-10-16T13:38:26;32.90;1.00
262;DHT22;114;48.260;10.988;2022-10-16T13:43:26;33.10;1.00
262;DHT22;114;48.260;10.988;2022-10-16T13:46:02;33.00;1.00
262;DHT22;114;48.260;10.988;2022-10-16T13:48:32;33.10;1.00
262;DHT22;114;48.260;10.988;2022-10-16T13:51:02;32.50;1.00
262;DHT22;114;48.260;10.988;2022-10-16T13:53:30;32.40;1.00
262;DHT22;114;48.260;10.988;2022-10-16T13:55:56;32.10;1.00
262;DHT22;114;48.260;10.988;2022-10-16T13:58:22;31.60;1.00
262;DHT22;114;48.260;10.988;2022-10-16T14:01:06;30.30;1.00
262;DHT22;114;48.260;10.988;2022-10-16T14:03:41;29.50;1.00
262;DHT22;114;48.260;10.988;2022-10-16T14:06:14;28.50;1.00
262;DHT22;114;48.260;10.988;2022-10-16T14:08:49;27.50;1.00
262;DHT22;114;48.260;10.988;2022-10-16T14:11:23;26.90;1.00
262;DHT22;114;48.260;10.988;2022-10-16T14:13:50;26.70;1.00
262;DHT22;114;48.260;10.988;2022-10-16T14:16:33;26.40;1.00
262;DHT22;114;48.260;10.988;2022-10-16T14:19:04;26.10;1.00
262;DHT22;114;48.260;10.988;2022-10-16T14:21:33;25.90;1.00
262;DHT22;114;48.260;10.988;2022-10-16T14:24:13;25.60;1.00
262;DHT22;114;48.260;10.988;2022-10-16T14:26:49;25.30;1.00
262;DHT22;114;48.260;10.988;2022-10-16T14:29:19;25.10;1.00
262;DHT22;114;48.260;10.988;2022-10-16T14:32:02;25.00;1.00
262;DHT22;114;48.260;10.988;2022-10-16T14:34:37;24.80;1.00
262;DHT22;114;48.260;10.988;2022-10-16T14:37:28;24.70;1.00
262;DHT22;114;48.260;10.988;2022-10-16T14:39:55;24.70;1.00
262;DHT22;114;48.260;10.988;2022-10-16T14:42:24;24.70;1.00
262;DHT22;114;48.260;10.988;2022-10-16T14:44:51;24.70;1.00
262;DHT22;114;48.260;10.988;2022-10-16T14:47:24;24.70;1.00
262;DHT22;114;48.260;10.988;2022-10-16T14:49:53;24.50;1.00
262;DHT22;114;48.260;10.988;2022-10-16T14:52:20;24.50;1.00
262;DHT22;114;48.260;10.988;2022-10-16T14:54:49;24.40;1.00
262;DHT22;114;48.260;10.988;2022-10-16T14:57:20;24.30;1.00
262;DHT22;114;48.260;10.988;2022-10-16T14:59:49;24.20;1.00
262;DHT22;114;48.260;10.988;2022-10-16T15:02:28;24.20;1.00
262;DHT22;114;48.260;10.988;2022-10-16T15:04:56;24.00;1.00
262;DHT22;114;48.260;10.988;2022-10-16T15:07:22;24.00;1.00
262;DHT22;114;48.260;10.988;2022-10-16T15:09:48;23.80;1.00
262;DHT22;114;48.260;10.988;2022-10-16T15:12:14;23.80;1.00
262;DHT22;114;48.260;10.988;2022-10-16T15:14:39;23.60;1.00
262;DHT22;114;48.260;10.988;2022-10-16T15:17:10;23.60;1.00
262;DHT22;114;48.260;10.988;2022-10-16T15:19:37;23.40;1.00
262;DHT22;114;48.260;10.988;2022-10-16T15:22:03;23.30;1.00
262;DHT22;114;48.260;10.988;2022-10-16T15:24:28;23.30;1.00
262;DHT22;114;48.260;10.988;2022-10-16T15:26:54;23.00;1.00
262;DHT22;114;48.260;10.988;2022-10-16T15:29:20;22.90;1.00
262;DHT22;114;48.260;10.988;2022-10-16T15:31:46;22.70;1.00
262;DHT22;114;48.260;10.988;2022-10-16T15:34:13;22.50;1.00
262;DHT22;114;48.260;10.988;2022-10-16T15:36:40;22.40;1.00
262;DHT22;114;48.260;10.988;2022-10-16T15:39:16;22.20;1.00
262;DHT22;114;48.260;10.988;2022-10-16T15:41:44;22.10;1.00
262;DHT22;114;48.260;10.988;2022-10-16T15:44:10;22.00;1.00
262;DHT22;114;48.260;10.988;2022-10-16T15:46:35;21.90;1.00
262;DHT22;114;48.260;10.988;2022-10-16T15:49:02;21.80;1.00
262;DHT22;114;48.260;10.988;2022-10-16T15:51:29;21.70;1.00
262;DHT22;114;48.260;10.988;2022-10-16T15:53:59;21.50;1.00
262;DHT22;114;48.260;10.988;2022-10-16T15:56:27;21.50;1.00
262;DHT22;114;48.260;10.988;2022-10-16T15:58:54;21.30;1.00
262;DHT22;114;48.260;10.988;2022-10-16T16:01:20;21.20;1.00
262;DHT22;114;48.260;10.988;2022-10-16T16:03:46;20.90;1.00
262;DHT22;114;48.260;10.988;2022-10-16T16:06:13;20.70;1.00
262;DHT22;114;48.260;10.988;2022-10-16T16:08:39;20.50;1.00
262;DHT22;114;48.260;10.988;2022-10-16T16:11:08;20.30;1.00
262;DHT22;114;48.260;10.988;2022-10-16T16:13:34;20.10;1.00
262;DHT22;114;48.260;10.988;2022-10-16T16:16:00;19.90;1.00
262;DHT22;114;48.260;10.988;2022-10-16T16:18:26;19.70;1.00
262;DHT22;114;48.260;10.988;2022-10-16T16:20:54;19.60;2.00
262;DHT22;114;48.260;10.988;2022-10-16T16:23:20;19.50;5.60
262;DHT22;114;48.260;10.988;2022-10-16T16:26:25;19.20;10.80
262;DHT22;114;48.260;10.988;2022-10-16T16:28:52;19.00;18.20
262;DHT22;114;48.260;10.988;2022-10-16T16:31:18;18.80;21.60
262;DHT22;114;48.260;10.988;2022-10-16T16:33:44;18.60;25.30
262;DHT22;114;48.260;10.988;2022-10-16T16:36:10;18.40;28.30
262;DHT22;114;48.260;10.988;2022-10-16T16:38:36;18.20;29.20
262;DHT22;114;48.260;10.988;2022-10-16T16:41:12;18.20;31.80
262;DHT22;114;48.260;10.988;2022-10-16T16:43:38;18.00;33.80
262;DHT22;114;48.260;10.988;2022-10-16T16:46:04;17.80;33.00
262;DHT22;114;48.260;10.988;2022-10-16T16:48:31;17.70;36.60
262;DHT22;114;48.260;10.988;2022-10-16T16:51:05;17.50;38.90
262;DHT22;114;48.260;10.988;2022-10-16T16:53:34;17.40;43.50
262;DHT22;114;48.260;10.988;2022-10-16T16:56:04;17.30;44.60
262;DHT22;114;48.260;10.988;2022-10-16T16:58:31;17.10;46.90
262;DHT22;114;48.260;10.988;2022-10-16T17:00:57;17.00;48.70
262;DHT22;114;48.260;10.988;2022-10-16T17:03:31;16.90;49.00
262;DHT22;114;48.260;10.988;2022-10-16T17:06:02;16.80;53.00
262;DHT22;114;48.260;10.988;2022-10-16T17:08:28;16.70;55.10
262;DHT22;114;48.260;10.988;2022-10-16T17:10:55;16.60;56.90
262;DHT22;114;48.260;10.988;2022-10-16T17:13:24;16.50;58.20
262;DHT22;114;48.260;10.988;2022-10-16T17:15:50;16.40;60.30
262;DHT22;114;48.260;10.988;2022-10-16T17:18:18;16.30;61.30
262;DHT22;114;48.260;10.988;2022-10-16T17:20:44;16.20;64.50
262;DHT22;114;48.260;10.988;2022-10-16T17:23:11;16.10;66.80
262;DHT22;114;48.260;10.988;2022-10-16T17:25:40;15.90;67.60
262;DHT22;114;48.260;10.988;2022-10-16T17:28:07;15.90;68.40
262;DHT22;114;48.260;10.988;2022-10-16T17:30:33;15.80;68.20
262;DHT22;114;48.260;10.988;2022-10-16T17:33:00;15.70;68.80
262;DHT22;114;48.260;10.988;2022-10-16T17:35:26;15.70;68.50
262;DHT22;114;48.260;10.988;2022-10-16T17:37:53;15.60;69.10
262;DHT22;114;48.260;10.988;2022-10-16T17:40:19;15.50;69.20
262;DHT22;114;48.260;10.988;2022-10-16T17:42:44;15.50;68.90
262;DHT22;114;48.260;10.988;2022-10-16T17:45:11;15.40;68.70
262;DHT22;114;48.260;10.988;2022-10-16T17:47:37;15.40;68.60
262;DHT22;114;48.260;10.988;2022-10-16T17:50:06;15.30;68.80
262;DHT22;114;48.260;10.988;2022-10-16T17:52:33;15.30;69.10
262;DHT22;114;48.260;10.988;2022-10-16T17:55:00;15.20;69.60
262;DHT22;114;48.260;10.988;2022-10-16T17:57:26;15.20;69.80
262;DHT22;114;48.260;10.988;2022-10-16T17:59:55;15.30;69.90
262;DHT22;114;48.260;10.988;2022-10-16T18:02:21;15.30;68.50
262;DHT22;114;48.260;10.988;2022-10-16T18:04:49;15.30;67.80
262;DHT22;114;48.260;10.988;2022-10-16T18:07:15;15.20;67.90
262;DHT22;114;48.260;10.988;2022-10-16T18:09:42;15.10;68.70
262;DHT22;114;48.260;10.988;2022-10-16T18:12:13;15.00;69.70
262;DHT22;114;48.260;10.988;2022-10-16T18:14:39;15.00;70.80
262;DHT22;114;48.260;10.988;2022-10-16T18:17:05;14.90;70.50
262;DHT22;114;48.260;10.988;2022-10-16T18:19:31;14.90;71.00
262;DHT22;114;48.260;10.988;2022-10-16T18:21:56;14.80;71.70
262;DHT22;114;48.260;10.988;2022-10-16T18:24:24;14.70;72.60
262;DHT22;114;48.260;10.988;2022-10-16T18:26:54;14.70;73.00